Time;durP1;ratioP1;P1;durP2;ratioP2;P2;SDS_P1;SDS_P2;PMS_P1;PMS_P2;Temp;Humidity;BMP_temperature;BMP_pressure;BME280_temperature;BME280_humidity;BME280_pressure;Samples;Min_cycle;Max_cycle;Signal;HPM_P1;HPM_P2
2022/07/28 00:02:14;;;;;;;0.30;0.30;;;23.90;60.70;;;;;;4953810;28;20552;-67
2022/07/28 00:04:40;;;;;;;0.70;0.52;;;23.90;60.70;;;;;;4953996;29;20027;-68
2022/07/28 00:07:05;;;;;;;1.20;0.40;;;23.90;60.70;;;;;;4953553;28;20019;-67
2022/07/28 00:09:31;;;;;;;0.73;0.43;;;23.90;60.70;;;;;;4954844;28;20097;-68
2022/07/28 00:11:57;;;;;;;1.55;0.50;;;23.90;60.70;;;;;;4954782;28;20525;-68
2022/07/28 00:14:23;;;;;;;0.98;0.40;;;23.90;60.70;;;;;;4954863;28;20031;-67
2022/07/28 00:16:48;;;;;;;1.15;0.50;;;23.90;60.70;;;;;;4953707;29;20035;-67
2022/07/28 00:19:14;;;;;;;0.50;0.50;;;23.90;60.70;;;;;;4953687;29;20031;-67
2022/07/28 00:21:39;;;;;;;0.47;0.40;;;23.90;60.70;;;;;;4954853;28;20051;-67
2022/07/28 00:24:05;;;;;;;1.40;0.50;;;23.90;60.70;;;;;;4953728;29;20397;-68
2022/07/28 00:26:31;;;;;;;0.63;0.40;;;23.80;60.60;;;;;;4953116;28;20402;-67
2022/07/28 00:28:57;;;;;;;0.55;0.52;;;23.80;60.60;;;;;;4954430;28;20023;-68
2022/07/28 00:31:22;;;;;;;0.57;0.45;;;23.80;60.70;;;;;;4960416;28;20081;-68
2022/07/28 00:33:48;;;;;;;0.55;0.30;;;23.80;60.70;;;;;;4989212;28;20022;-68
2022/07/28 00:36:14;;;;;;;1.60;0.55;;;23.80;60.70;;;;;;4973947;28;20559;-67
2022/07/28 00:38:39;;;;;;;0.57;0.43;;;23.80;60.70;;;;;;4973962;28;20031;-68
2022/07/28 00:41:11;;;;;;;0.50;0.50;;;23.80;60.70;;;;;;4973273;28;20026;-68
2022/07/28 00:43:42;;;;;;;0.50;0.40;;;23.80;60.70;;;;;;4972791;28;20078;-68
2022/07/28 00:46:08;;;;;;;0.40;0.40;;;23.80;60.70;;;;;;4972652;28;20033;-68
2022/07/28 00:48:36;;;;;;;0.60;0.50;;;23.80;60.60;;;;;;4973768;28;20018;-68
2022/07/28 00:51:02;;;;;;;0.40;0.40;;;23.80;60.70;;;;;;4972394;28;20078;-68
2022/07/28 00:53:28;;;;;;;0.38;0.38;;;23.80;60.70;;;;;;4972739;28;20440;-67
2022/07/28 00:55:54;;;;;;;0.75;0.40;;;23.80;60.70;;;;;;4973533;28;20062;-68
2022/07/28 00:58:19;;;;;;;1.15;0.40;;;23.80;60.70;;;;;;4973523;28;20023;-68
2022/07/28 01:00:45;;;;;;;0.43;0.40;;;23.80;60.70;;;;;;4972473;28;20073;-67
2022/07/28 01:03:11;;;;;;;0.50;0.40;;;23.90;60.70;;;;;;4973507;28;20476;-68
2022/07/28 01:05:53;;;;;;;2.00;0.50;;;23.80;60.80;;;;;;4972633;28;20030;-68
2022/07/28 01:08:25;;;;;;;;;;;23.80;60.70;;;;;;4972898;28;20038;-68
2022/07/28 01:10:57;;;;;;;0.52;0.40;;;23.80;60.70;;;;;;4973323;28;20338;-68
2022/07/28 01:13:52;;;;;;;1.15;0.57;;;23.80;60.70;;;;;;4972819;28;20076;-68
2022/07/28 01:16:17;;;;;;;0.47;0.40;;;23.80;60.70;;;;;;4990410;28;20035;-67
2022/07/28 01:18:48;;;;;;;0.40;0.40;;;23.80;60.70;;;;;;4990732;28;20121;-68
2022/07/28 01:21:15;;;;;;;1.20;0.50;;;23.80;60.70;;;;;;4977530;28;20065;-68
2022/07/28 01:23:56;;;;;;;0.40;0.40;;;23.80;60.70;;;;;;4978275;28;20062;-68
2022/07/28 01:27:03;;;;;;;0.88;0.63;;;23.80;60.70;;;;;;4994485;28;20023;-68
2022/07/28 01:29:52;;;;;;;1.02;0.40;;;23.70;60.60;;;;;;4985303;28;20129;-68
2022/07/28 01:32:22;;;;;;;0.40;0.40;;;23.70;60.60;;;;;;4978459;28;20500;-68
2022/07/28 01:35:06;;;;;;;1.20;0.50;;;23.70;60.70;;;;;;4958054;28;20090;-67
2022/07/28 01:37:32;;;;;;;0.57;0.45;;;23.70;60.60;;;;;;4958922;28;20126;-68
2022/07/28 01:40:00;;;;;;;0.47;0.40;;;23.70;60.70;;;;;;4961622;28;20034;-67
2022/07/28 01:42:31;;;;;;;0.63;0.40;;;23.70;60.70;;;;;;4992978;28;20026;-68
2022/07/28 01:44:56;;;;;;;0.40;0.40;;;23.70;60.80;;;;;;4976918;28;20025;-68
2022/07/28 01:47:22;;;;;;;0.40;0.40;;;23.70;60.70;;;;;;4976665;28;20039;-68
2022/07/28 01:49:48;;;;;;;1.05;0.43;;;23.80;60.80;;;;;;4993168;28;20029;-67
2022/07/28 01:52:14;;;;;;;0.47;0.47;;;23.70;60.80;;;;;;4991345;28;20040;-68
2022/07/28 01:54:40;;;;;;;0.35;0.30;;;23.70;60.70;;;;;;4974390;28;20070;-67
2022/07/28 01:57:07;;;;;;;0.65;0.35;;;23.70;60.80;;;;;;4974188;28;20058;-68
2022/07/28 01:59:33;;;;;;;0.70;0.70;;;23.70;60.80;;;;;;4974636;28;20027;-67
2022/07/28 02:01:59;;;;;;;0.47;0.40;;;23.70;60.80;;;;;;4974346;28;20050;-68
2022/07/28 02:04:25;;;;;;;0.73;0.40;;;23.70;60.80;;;;;;4974208;28;20495;-68
2022/07/28 02:06:51;;;;;;;0.40;0.40;;;23.70;60.90;;;;;;4974322;28;20114;-67
2022/07/28 02:09:16;;;;;;;0.57;0.43;;;23.70;60.90;;;;;;4974168;28;20101;-67
2022/07/28 02:11:43;;;;;;;0.47;0.35;;;23.70;60.90;;;;;;4974162;28;20476;-67
2022/07/28 02:14:17;;;;;;;0.47;0.45;;;23.70;60.90;;;;;;4974185;28;20073;-67
2022/07/28 02:16:45;;;;;;;0.77;0.45;;;23.70;60.90;;;;;;4974381;28;20161;-67
2022/07/28 02:19:12;;;;;;;0.45;0.45;;;23.70;60.90;;;;;;4973966;28;20023;-68
2022/07/28 02:21:37;;;;;;;0.57;0.40;;;23.70;60.90;;;;;;4973911;28;20058;-67
2022/07/28 02:24:03;;;;;;;0.40;0.40;;;23.60;60.90;;;;;;4973980;28;20055;-67
2022/07/28 02:29:01;;;;;;;1.75;0.47;;;23.70;60.90;;;;;;5069681;28;20468;-66
2022/07/28 02:31:28;;;;;;;0.60;0.40;;;23.70;61.00;;;;;;5068398;28;20066;-66
2022/07/28 02:33:57;;;;;;;1.77;0.40;;;23.60;60.90;;;;;;5069825;28;20091;-66
2022/07/28 02:36:30;;;;;;;0.50;0.40;;;23.70;61.00;;;;;;5084294;28;20091;-66
2022/07/28 02:39:01;;;;;;;3.72;0.50;;;23.60;61.10;;;;;;5086952;28;20497;-66
2022/07/28 02:41:28;;;;;;;1.45;0.40;;;23.70;61.20;;;;;;5070331;28;20143;-66
2022/07/28 02:43:58;;;;;;;3.05;0.80;;;23.60;61.20;;;;;;5067179;28;20031;-66
2022/07/28 02:46:45;;;;;;;0.40;0.40;;;23.60;61.20;;;;;;5067230;28;20497;-66
2022/07/28 02:49:31;;;;;;;0.80;0.73;;;23.70;61.20;;;;;;5066785;28;20051;-67
2022/07/28 02:51:57;;;;;;;2.55;0.55;;;23.70;61.30;;;;;;5081821;28;20034;-67
2022/07/28 02:54:23;;;;;;;0.60;0.32;;;23.70;61.40;;;;;;5064892;28;20216;-67
2022/07/28 02:56:49;;;;;;;0.50;0.40;;;23.60;61.20;;;;;;5066966;28;20486;-67
2022/07/28 02:59:16;;;;;;;0.52;0.40;;;23.60;61.30;;;;;;5066779;28;20021;-67
2022/07/28 03:01:42;;;;;;;0.50;0.47;;;23.60;61.20;;;;;;5066840;28;20142;-67
2022/07/28 03:04:09;;;;;;;0.50;0.40;;;23.60;61.20;;;;;;5088163;28;20474;-67
2022/07/28 03:06:34;;;;;;;0.40;0.40;;;23.60;61.20;;;;;;5086428;28;20073;-67
2022/07/28 03:09:00;;;;;;;0.68;0.40;;;23.60;61.20;;;;;;5069640;28;20024;-67
2022/07/28 03:11:26;;;;;;;1.98;0.50;;;23.60;61.20;;;;;;5086620;28;20025;-67
2022/07/28 03:13:52;;;;;;;1.02;0.40;;;23.60;61.20;;;;;;5087798;28;20016;-67
2022/07/28 03:16:17;;;;;;;0.50;0.50;;;23.60;61.20;;;;;;5086287;28;20077;-67
2022/07/28 03:18:43;;;;;;;0.50;0.40;;;23.60;61.20;;;;;;5087917;28;20016;-67
2022/07/28 03:21:09;;;;;;;0.85;0.40;;;23.60;61.20;;;;;;5087218;28;20024;-67
2022/07/28 03:23:40;;;;;;;0.70;0.60;;;23.60;61.20;;;;;;5087593;28;20550;-67
2022/07/28 03:26:11;;;;;;;0.30;0.30;;;23.60;61.20;;;;;;5086355;28;20051;-67
2022/07/28 03:28:37;;;;;;;0.40;0.40;;;23.60;61.30;;;;;;5048913;28;20048;-67
2022/07/28 03:31:04;;;;;;;1.10;0.50;;;23.60;61.20;;;;;;5049409;28;20035;-67
2022/07/28 03:33:30;;;;;;;0.52;0.40;;;23.60;61.20;;;;;;5049506;28;20104;-66
2022/07/28 03:35:57;;;;;;;0.40;0.40;;;23.60;61.20;;;;;;5049184;28;20020;-66
2022/07/28 03:38:47;;;;;;;1.17;0.43;;;23.60;61.40;;;;;;5047015;28;20456;-66
2022/07/28 03:41:12;;;;;;;0.90;0.50;;;23.60;61.30;;;;;;5032291;28;20034;-66
2022/07/28 03:43:38;;;;;;;1.80;0.70;;;23.60;61.30;;;;;;5049427;28;20034;-67
2022/07/28 03:46:04;;;;;;;2.25;0.60;;;23.60;61.40;;;;;;5049285;28;20032;-66
2022/07/28 03:48:30;;;;;;;0.57;0.50;;;23.60;61.30;;;;;;5065311;28;20529;-66
2022/07/28 03:50:56;;;;;;;0.40;0.40;;;23.60;61.40;;;;;;5033917;28;20104;-67
2022/07/28 03:53:24;;;;;;;1.17;0.40;;;23.60;61.40;;;;;;5033844;28;20144;-66
2022/07/28 03:55:50;;;;;;;0.75;0.60;;;23.60;61.40;;;;;;5049065;28;20556;-66
2022/07/28 03:58:17;;;;;;;1.25;0.60;;;23.60;61.40;;;;;;5065630;28;20057;-67
2022/07/28 04:00:43;;;;;;;0.95;0.50;;;23.60;61.40;;;;;;5034078;28;20028;-66
2022/07/28 04:03:08;;;;;;;1.05;0.50;;;23.60;61.40;;;;;;5067085;28;20026;-66
2022/07/28 04:05:34;;;;;;;1.50;0.70;;;23.60;61.40;;;;;;5035270;28;20460;-67
2022/07/28 04:07:59;;;;;;;1.30;0.35;;;23.60;61.40;;;;;;5035120;28;20119;-67
2022/07/28 04:10:25;;;;;;;0.65;0.50;;;23.60;61.40;;;;;;5035131;28;20096;-66
2022/07/28 04:12:53;;;;;;;1.15;0.43;;;23.60;61.40;;;;;;5035299;28;20022;-67
2022/07/28 04:15:19;;;;;;;0.52;0.45;;;23.60;61.40;;;;;;5034891;28;20099;-67
2022/07/28 04:17:47;;;;;;;1.15;0.73;;;23.60;61.40;;;;;;5050220;28;20484;-67
2022/07/28 04:20:13;;;;;;;1.00;0.50;;;23.60;61.50;;;;;;5035047;28;20043;-67
2022/07/28 04:22:38;;;;;;;1.08;0.40;;;23.60;61.40;;;;;;5034874;28;20033;-66
2022/07/28 04:25:05;;;;;;;1.02;0.40;;;23.60;61.50;;;;;;5035101;28;20104;-66
2022/07/28 04:27:30;;;;;;;1.13;0.40;;;23.60;61.40;;;;;;5049814;28;20037;-67
2022/07/28 04:29:56;;;;;;;0.63;0.60;;;23.60;61.50;;;;;;5034656;28;20040;-66
2022/07/28 04:32:22;;;;;;;2.05;0.50;;;23.60;62.50;;;;;;5034443;28;20024;-67
2022/07/28 04:34:48;;;;;;;1.35;0.60;;;23.60;61.50;;;;;;5033770;28;20395;-66
2022/07/28 04:37:14;;;;;;;0.40;0.38;;;23.60;61.50;;;;;;5034744;28;20028;-67
2022/07/28 04:39:40;;;;;;;0.68;0.40;;;23.50;61.50;;;;;;5034608;28;20030;-66
2022/07/28 04:42:05;;;;;;;0.52;0.40;;;23.50;61.40;;;;;;5034796;28;20523;-66
2022/07/28 04:44:32;;;;;;;1.05;0.65;;;23.50;62.40;;;;;;5033260;28;20549;-66
2022/07/28 04:46:57;;;;;;;0.88;0.50;;;23.50;61.50;;;;;;5034410;28;20034;-67
2022/07/28 04:49:23;;;;;;;0.40;0.40;;;23.50;61.50;;;;;;5034439;28;20078;-67
2022/07/28 04:51:51;;;;;;;0.63;0.40;;;23.50;61.40;;;;;;5033520;28;20017;-67
2022/07/28 04:54:17;;;;;;;0.75;0.32;;;23.50;61.50;;;;;;5033116;28;20021;-66
2022/07/28 04:56:43;;;;;;;1.67;0.60;;;23.50;61.50;;;;;;5033116;28;20024;-67
2022/07/28 04:59:08;;;;;;;0.40;0.40;;;23.50;61.50;;;;;;5040227;28;20025;-67
2022/07/28 05:01:37;;;;;;;0.98;0.50;;;23.50;61.50;;;;;;5053918;28;20183;-67
2022/07/28 05:04:06;;;;;;;0.60;0.40;;;23.50;61.50;;;;;;5054195;28;20032;-67
2022/07/28 05:06:34;;;;;;;0.65;0.47;;;23.50;61.50;;;;;;5053904;28;20479;-67
2022/07/28 05:08:59;;;;;;;0.55;0.35;;;23.50;61.60;;;;;;5052736;28;20031;-67
2022/07/28 05:11:25;;;;;;;0.98;0.40;;;23.50;61.60;;;;;;5053898;28;20017;-67
2022/07/28 05:13:51;;;;;;;0.68;0.35;;;23.50;61.60;;;;;;5052309;28;20105;-67
2022/07/28 05:16:16;;;;;;;0.63;0.47;;;23.50;61.70;;;;;;5053022;28;20375;-67
2022/07/28 05:18:42;;;;;;;0.40;0.40;;;23.50;61.60;;;;;;5053567;28;20498;-67
2022/07/28 05:21:08;;;;;;;2.40;0.40;;;23.50;61.70;;;;;;5053865;28;20024;-67
2022/07/28 05:23:33;;;;;;;0.40;0.40;;;23.50;61.70;;;;;;5053660;28;20071;-67
2022/07/28 05:25:59;;;;;;;0.70;0.60;;;23.50;61.60;;;;;;5053754;28;20025;-67
2022/07/28 05:28:24;;;;;;;1.25;0.70;;;23.50;61.70;;;;;;5046805;28;20037;-66
2022/07/28 05:30:50;;;;;;;0.52;0.40;;;23.50;62.80;;;;;;5033475;28;20053;-67
2022/07/28 05:33:16;;;;;;;0.73;0.50;;;23.50;61.80;;;;;;5044932;28;20025;-67
2022/07/28 05:35:43;;;;;;;0.50;0.50;;;23.50;61.80;;;;;;5050361;28;20467;-67
2022/07/28 05:38:09;;;;;;;1.80;0.50;;;23.50;61.80;;;;;;5050332;28;20021;-66
2022/07/28 05:40:35;;;;;;;1.23;0.73;;;23.50;61.90;;;;;;5040518;28;20028;-66
2022/07/28 05:43:00;;;;;;;0.73;0.57;;;23.50;62.10;;;;;;5063665;28;20036;-67
2022/07/28 05:45:26;;;;;;;1.00;0.52;;;23.50;62.10;;;;;;5031523;28;20025;-67
2022/07/28 05:47:52;;;;;;;0.57;0.40;;;23.50;62.10;;;;;;5031271;28;20029;-67
2022/07/28 05:50:19;;;;;;;0.68;0.43;;;23.50;62.20;;;;;;5063272;28;20626;-67
2022/07/28 05:52:45;;;;;;;0.77;0.60;;;23.50;62.20;;;;;;5031453;28;20028;-66
2022/07/28 05:55:11;;;;;;;2.45;0.50;;;23.50;62.20;;;;;;5063256;28;20024;-66
2022/07/28 05:57:37;;;;;;;1.13;0.43;;;23.40;62.00;;;;;;5063084;28;20030;-67
2022/07/28 06:00:07;;;;;;;2.92;0.40;;;23.50;62.10;;;;;;5046225;28;20540;-67
2022/07/28 06:02:33;;;;;;;2.08;0.60;;;23.50;62.10;;;;;;5062751;28;20113;-67
2022/07/28 06:04:59;;;;;;;1.20;0.60;;;23.50;62.20;;;;;;5031253;28;20092;-67
2022/07/28 06:07:24;;;;;;;1.52;0.55;;;23.50;62.10;;;;;;5031041;28;20105;-67
2022/07/28 06:09:50;;;;;;;2.17;0.40;;;23.40;62.10;;;;;;5062861;28;20168;-67
2022/07/28 06:12:15;;;;;;;2.10;0.50;;;23.50;62.10;;;;;;5030982;28;20025;-67
2022/07/28 06:14:41;;;;;;;0.47;0.47;;;23.40;62.10;;;;;;5031308;28;20020;-66
2022/07/28 06:17:07;;;;;;;0.50;0.30;;;23.50;62.10;;;;;;5031005;28;20033;-66
2022/07/28 06:19:32;;;;;;;0.47;0.40;;;23.50;62.00;;;;;;5030862;28;20487;-67
2022/07/28 06:21:58;;;;;;;0.38;0.30;;;23.50;62.00;;;;;;5031234;28;20030;-67
2022/07/28 06:24:24;;;;;;;0.63;0.50;;;23.50;62.10;;;;;;5030721;28;20053;-67
2022/07/28 06:26:50;;;;;;;0.70;0.60;;;23.50;62.10;;;;;;5030754;28;20058;-67
2022/07/28 06:29:15;;;;;;;0.95;0.50;;;23.50;62.10;;;;;;5030955;28;20022;-67
2022/07/28 06:31:41;;;;;;;0.50;0.50;;;23.40;62.10;;;;;;5031042;28;20071;-67
2022/07/28 06:34:06;;;;;;;0.70;0.40;;;23.40;62.10;;;;;;5031126;28;20019;-66
2022/07/28 06:36:32;;;;;;;2.70;0.63;;;23.40;62.20;;;;;;5031090;28;20096;-67
2022/07/28 06:38:58;;;;;;;2.83;0.60;;;23.40;62.20;;;;;;5037132;28;20031;-67
2022/07/28 06:41:23;;;;;;;0.80;0.57;;;23.50;62.30;;;;;;5034437;28;20029;-66
2022/07/28 06:43:51;;;;;;;0.52;0.40;;;23.40;62.20;;;;;;5030698;28;20049;-66
2022/07/28 06:46:17;;;;;;;3.10;0.55;;;23.40;62.20;;;;;;5031181;28;20029;-66
2022/07/28 06:48:44;;;;;;;0.88;0.50;;;23.40;62.30;;;;;;5031034;28;20061;-66
2022/07/28 06:51:10;;;;;;;1.08;0.60;;;23.50;62.30;;;;;;5030853;28;20025;-66
2022/07/28 06:53:36;;;;;;;0.93;0.65;;;23.40;62.30;;;;;;5062656;28;20017;-66
2022/07/28 06:56:05;;;;;;;0.55;0.55;;;23.40;62.40;;;;;;5062890;28;20494;-66
2022/07/28 06:58:30;;;;;;;5.47;0.50;;;23.40;62.30;;;;;;5061634;28;20017;-66
2022/07/28 07:00:56;;;;;;;4.53;0.68;;;23.40;62.30;;;;;;5030568;28;20021;-66
2022/07/28 07:03:22;;;;;;;2.63;0.50;;;23.40;62.40;;;;;;5030595;28;20070;-66
2022/07/28 07:05:47;;;;;;;1.00;0.73;;;23.50;62.40;;;;;;5030494;28;20132;-66
2022/07/28 07:08:13;;;;;;;1.15;0.80;;;23.50;61.30;;;;;;5029184;28;20115;-66
2022/07/28 07:10:38;;;;;;;0.70;0.70;;;23.40;60.60;;;;;;5030200;28;20061;-66
2022/07/28 07:13:04;;;;;;;0.82;0.70;;;23.40;60.30;;;;;;5030278;28;20014;-66
2022/07/28 07:15:30;;;;;;;0.90;0.77;;;23.40;60.50;;;;;;5033627;28;20427;-66
2022/07/28 07:17:55;;;;;;;0.63;0.63;;;23.30;60.50;;;;;;5034063;28;20022;-66
2022/07/28 07:20:21;;;;;;;1.20;1.00;;;23.30;60.20;;;;;;5033933;28;20036;-66
2022/07/28 07:22:47;;;;;;;1.10;1.00;;;23.30;60.10;;;;;;5034194;28;20098;-66
2022/07/28 07:25:14;;;;;;;1.40;0.85;;;23.30;60.10;;;;;;5034061;28;20025;-66
2022/07/28 07:27:40;;;;;;;1.52;1.00;;;23.30;59.90;;;;;;5031811;28;20384;-66
2022/07/28 07:30:06;;;;;;;1.05;0.77;;;23.30;59.90;;;;;;5032713;28;20048;-66
2022/07/28 07:32:32;;;;;;;1.17;1.10;;;23.30;60.00;;;;;;5049236;28;20022;-66
2022/07/28 07:34:57;;;;;;;0.63;0.63;;;23.20;59.80;;;;;;5065842;28;20060;-67
2022/07/28 07:37:23;;;;;;;0.70;0.70;;;23.20;59.60;;;;;;5033984;28;20034;-67
2022/07/28 07:39:49;;;;;;;0.90;0.80;;;23.20;59.60;;;;;;5035306;28;20022;-67
2022/07/28 07:42:15;;;;;;;1.55;1.25;;;23.20;59.60;;;;;;5052072;28;20029;-67
2022/07/28 07:44:41;;;;;;;1.95;0.90;;;23.20;59.50;;;;;;5053766;28;20031;-66
2022/07/28 07:47:09;;;;;;;0.80;0.80;;;23.20;59.50;;;;;;5053418;28;20053;-66
2022/07/28 07:49:37;;;;;;;1.55;0.60;;;23.20;59.50;;;;;;5053364;28;20074;-66
2022/07/28 07:52:03;;;;;;;2.90;0.90;;;23.20;59.50;;;;;;5052158;28;20033;-66
2022/07/28 07:54:29;;;;;;;6.60;1.60;;;23.20;59.70;;;;;;5053183;28;21290;-66
2022/07/28 07:56:55;;;;;;;1.98;0.80;;;23.20;59.80;;;;;;5035059;28;20025;-67
2022/07/28 07:59:21;;;;;;;3.03;1.02;;;23.20;59.80;;;;;;5053149;28;20436;-67
2022/07/28 08:01:49;;;;;;;2.55;1.23;;;23.20;59.90;;;;;;5052950;28;20025;-67
2022/07/28 08:04:16;;;;;;;8.68;1.95;;;23.20;59.90;;;;;;5051886;28;20144;-66
2022/07/28 08:06:41;;;;;;;6.00;2.10;;;23.10;59.90;;;;;;5052923;28;20038;-67
2022/07/28 08:09:07;;;;;;;5.68;1.75;;;23.10;59.90;;;;;;5052967;28;20016;-67
2022/07/28 08:11:33;;;;;;;5.00;1.73;;;23.20;60.00;;;;;;5052935;28;20434;-67
2022/07/28 08:13:59;;;;;;;4.65;1.85;;;23.20;60.00;;;;;;5054409;28;20036;-66
2022/07/28 08:16:24;;;;;;;3.72;1.67;;;23.10;60.00;;;;;;5054414;28;20032;-65
2022/07/28 08:18:50;;;;;;;6.07;2.42;;;23.10;60.00;;;;;;5054392;28;20029;-65
2022/07/28 08:21:16;;;;;;;6.50;1.98;;;23.10;60.00;;;;;;5053093;28;20481;-65
2022/07/28 08:23:42;;;;;;;12.80;1.90;;;23.10;60.00;;;;;;5054155;28;20559;-65
2022/07/28 08:26:08;;;;;;;6.32;2.10;;;23.20;60.10;;;;;;5052910;28;20112;-65
2022/07/28 08:28:33;;;;;;;5.68;1.80;;;23.10;60.10;;;;;;5044911;28;20041;-65
2022/07/28 08:30:59;;;;;;;8.55;2.28;;;23.10;60.10;;;;;;5033997;28;20105;-65
2022/07/28 08:33:25;;;;;;;8.77;2.25;;;23.10;60.10;;;;;;5034202;28;20546;-65
2022/07/28 08:35:50;;;;;;;4.60;2.13;;;23.10;60.20;;;;;;5034065;28;20029;-65
2022/07/28 08:38:16;;;;;;;4.93;1.70;;;23.10;60.20;;;;;;5034090;28;20022;-65
2022/07/28 08:40:42;;;;;;;6.70;2.05;;;23.10;60.20;;;;;;5021962;28;20022;-65
2022/07/28 08:43:31;;;;;;;9.07;2.17;;;23.10;60.20;;;;;;5013111;28;20113;-64
2022/07/28 08:45:59;;;;;;;5.80;2.33;;;23.10;60.30;;;;;;5014061;28;20021;-65
2022/07/28 08:48:30;;;;;;;7.05;2.17;;;23.10;60.30;;;;;;5014165;28;20025;-65
2022/07/28 08:51:00;;;;;;;6.13;2.13;;;23.10;60.30;;;;;;5014141;28;20484;-65
2022/07/28 08:53:26;;;;;;;8.18;2.88;;;23.10;60.30;;;;;;5012686;28;20018;-65
2022/07/28 08:55:51;;;;;;;8.50;2.58;;;23.10;60.30;;;;;;5012853;28;20084;-65
2022/07/28 08:58:17;;;;;;;6.63;2.33;;;23.10;60.40;;;;;;5012770;28;20022;-65
2022/07/28 09:00:43;;;;;;;6.18;2.17;;;23.10;60.40;;;;;;5012741;28;20037;-65
2022/07/28 09:03:10;;;;;;;7.55;2.60;;;23.10;60.40;;;;;;5012765;28;20026;-65
2022/07/28 09:05:35;;;;;;;6.75;2.22;;;23.10;60.40;;;;;;5012562;28;20049;-67
2022/07/28 09:08:01;;;;;;;6.60;2.60;;;23.10;60.50;;;;;;5012361;28;20447;-66
2022/07/28 09:10:27;;;;;;;8.70;2.72;;;23.10;60.40;;;;;;5012740;28;20021;-66
2022/07/28 09:12:52;;;;;;;7.85;2.80;;;23.10;60.40;;;;;;5013620;28;20022;-66
2022/07/28 09:15:18;;;;;;;8.05;2.85;;;23.10;60.50;;;;;;5013664;28;20034;-66
2022/07/28 09:17:44;;;;;;;6.97;2.58;;;23.10;60.50;;;;;;5012418;28;20113;-71
2022/07/28 09:20:10;;;;;;;6.07;3.10;;;23.10;60.50;;;;;;5026906;28;20040;-72
2022/07/28 09:22:36;;;;;;;6.40;2.50;;;23.10;59.00;;;;;;5049260;28;20057;-72
2022/07/28 09:25:02;;;;;;;6.35;2.58;;;23.20;57.80;;;;;;5015656;28;20439;-73
2022/07/28 09:27:41;;;;;;;7.70;3.00;;;23.20;57.60;;;;;;5036932;28;20525;-73
2022/07/28 09:30:07;;;;;;;6.72;2.60;;;23.20;57.10;;;;;;5012270;28;20025;-73
2022/07/28 09:32:33;;;;;;;7.20;2.67;;;23.20;56.90;;;;;;5013288;28;20508;-73
2022/07/28 09:34:59;;;;;;;4.40;2.20;;;23.20;56.40;;;;;;5012254;28;20080;-73
2022/07/28 09:37:25;;;;;;;7.55;2.20;;;23.30;56.10;;;;;;5044352;28;20047;-73
2022/07/28 09:39:52;;;;;;;3.30;2.10;;;23.30;55.80;;;;;;5049197;28;20030;-73
2022/07/28 09:42:18;;;;;;;4.75;2.20;;;23.30;56.10;;;;;;5031926;28;20163;-73
2022/07/28 09:44:44;;;;;;;4.78;2.45;;;23.40;55.40;;;;;;5031752;28;20029;-73
2022/07/28 09:47:23;;;;;;;7.13;2.60;;;23.40;55.40;;;;;;5015301;28;20037;-73
2022/07/28 09:49:49;;;;;;;5.28;1.90;;;23.40;55.60;;;;;;5032828;28;20082;-72
2022/07/28 09:52:26;;;;;;;3.90;2.08;;;23.50;55.50;;;;;;5015078;28;20096;-74
2022/07/28 09:55:05;;;;;;;10.63;2.17;;;23.50;55.20;;;;;;5051315;28;20053;-73
2022/07/28 09:57:31;;;;;;;6.88;1.95;;;23.60;55.40;;;;;;5051615;28;20501;-73
2022/07/28 09:59:57;;;;;;;6.90;2.08;;;23.60;55.10;;;;;;5052525;28;20028;-73
2022/07/28 10:02:26;;;;;;;3.63;1.60;;;23.60;54.30;;;;;;5052717;28;20036;-74
2022/07/28 10:04:52;;;;;;;4.47;1.80;;;23.60;54.60;;;;;;5051450;28;20421;-74
2022/07/28 10:07:18;;;;;;;3.72;1.65;;;23.60;54.00;;;;;;5051042;28;20090;-74
2022/07/28 10:10:04;;;;;;;4.95;1.80;;;23.60;53.60;;;;;;5051237;28;20029;-74
2022/07/28 10:12:31;;;;;;;5.40;1.55;;;23.60;54.00;;;;;;5051070;28;20545;-73
2022/07/28 10:14:58;;;;;;;3.22;1.75;;;23.60;53.70;;;;;;5052406;28;20159;-73
2022/07/28 10:17:28;;;;;;;3.28;1.40;;;23.60;53.60;;;;;;5051380;28;20025;-74
2022/07/28 10:20:02;;;;;;;4.22;1.42;;;23.70;53.70;;;;;;5051048;28;20029;-74
2022/07/28 10:22:31;;;;;;;3.42;1.33;;;23.70;53.00;;;;;;5051003;28;20486;-74
2022/07/28 10:24:57;;;;;;;6.18;1.55;;;23.70;53.00;;;;;;5051204;28;20033;-74
2022/07/28 10:27:26;;;;;;;2.47;1.30;;;23.70;52.50;;;;;;5044464;28;20056;-74
2022/07/28 10:29:57;;;;;;;5.15;1.45;;;23.70;52.50;;;;;;5030912;28;20030;-74
2022/07/28 10:32:23;;;;;;;3.65;1.25;;;23.70;52.40;;;;;;5031105;28;20026;-74
2022/07/28 10:34:51;;;;;;;4.15;1.38;;;23.70;52.50;;;;;;5032057;28;20029;-74
2022/07/28 10:37:19;;;;;;;3.88;1.27;;;23.70;52.60;;;;;;5031120;28;20097;-73
2022/07/28 10:40:06;;;;;;;3.92;1.10;;;23.80;51.80;;;;;;5028245;28;20053;-73
2022/07/28 10:42:32;;;;;;;3.35;1.05;;;23.80;51.60;;;;;;5011251;28;20430;-73
2022/07/28 10:44:58;;;;;;;3.85;1.27;;;23.80;51.60;;;;;;5011061;28;20037;-72
2022/07/28 10:47:24;;;;;;;4.05;1.25;;;23.80;51.50;;;;;;5011245;28;20030;-70
2022/07/28 10:49:50;;;;;;;6.57;1.60;;;23.80;51.60;;;;;;5013145;28;20026;-66
2022/07/28 10:52:17;;;;;;;3.03;1.17;;;23.90;52.20;;;;;;5016958;28;20522;-66
2022/07/28 10:54:58;;;;;;;2.58;1.20;;;23.80;51.90;;;;;;5016709;28;20041;-66
2022/07/28 10:57:23;;;;;;;1.70;1.00;;;23.80;51.60;;;;;;5014952;28;20094;-66
2022/07/28 11:00:07;;;;;;;5.07;1.25;;;23.70;51.50;;;;;;5015235;28;20081;-66
2022/07/28 11:02:51;;;;;;;3.92;1.05;;;23.70;52.00;;;;;;5015073;28;20053;-66
2022/07/28 11:05:42;;;;;;;5.38;1.30;;;23.60;52.00;;;;;;5016062;28;20080;-66
2022/07/28 11:08:14;;;;;;;4.85;1.90;;;23.60;52.20;;;;;;5014725;28;20383;-66
2022/07/28 11:10:45;;;;;;;6.22;2.03;;;23.60;52.40;;;;;;5016026;28;20026;-65
2022/07/28 11:13:30;;;;;;;13.48;3.33;;;23.60;52.70;;;;;;5014738;28;20410;-66
2022/07/28 11:16:14;;;;;;;6.68;2.45;;;23.60;54.00;;;;;;5015983;28;20025;-66
2022/07/28 11:19:09;;;;;;;9.55;2.72;;;23.60;52.70;;;;;;5015003;28;20411;-65
2022/07/28 11:21:35;;;;;;;8.57;3.03;;;23.60;53.60;;;;;;5015970;28;20025;-65
2022/07/28 11:24:01;;;;;;;9.45;2.90;;;23.70;54.10;;;;;;5015876;28;20109;-65
2022/07/28 11:26:33;;;;;;;5.80;2.38;;;23.70;54.30;;;;;;5015867;28;20030;-65
2022/07/28 11:28:59;;;;;;;5.63;2.22;;;23.70;53.40;;;;;;5042166;28;20411;-65
2022/07/28 11:31:43;;;;;;;7.43;2.70;;;23.70;53.00;;;;;;5035486;28;20033;-65
2022/07/28 11:34:11;;;;;;;8.00;2.72;;;23.70;52.60;;;;;;5035057;28;20025;-65
2022/07/28 11:37:11;;;;;;;7.63;2.40;;;23.60;52.40;;;;;;5035331;28;20109;-65
2022/07/28 11:39:38;;;;;;;6.72;2.13;;;23.60;52.30;;;;;;5033592;28;20437;-65
2022/07/28 11:42:26;;;;;;;6.95;2.58;;;23.60;52.10;;;;;;5015464;28;20030;-65
2022/07/28 11:44:55;;;;;;;7.47;2.13;;;23.70;53.00;;;;;;5015179;28;20022;-65
2022/07/28 11:47:24;;;;;;;7.88;2.65;;;23.70;53.20;;;;;;5015094;28;20034;-65
2022/07/28 11:50:09;;;;;;;7.82;2.05;;;23.70;53.50;;;;;;5015395;28;20022;-65
2022/07/28 11:52:35;;;;;;;5.97;1.55;;;23.70;53.30;;;;;;5015329;28;20061;-64
2022/07/28 11:55:01;;;;;;;5.20;1.83;;;23.70;51.90;;;;;;5013903;28;20057;-65
2022/07/28 11:57:26;;;;;;;4.88;1.88;;;23.70;53.20;;;;;;5015109;28;20403;-64
2022/07/28 11:59:53;;;;;;;5.80;2.00;;;23.70;52.70;;;;;;5013356;28;20468;-64
2022/07/28 12:02:24;;;;;;;4.82;2.05;;;23.70;52.50;;;;;;5013911;28;20033;-65
2022/07/28 12:04:57;;;;;;;3.47;1.70;;;23.80;52.50;;;;;;5022541;28;20112;-69
2022/07/28 12:07:27;;;;;;;3.90;1.60;;;23.90;52.20;;;;;;5026451;28;20032;-71
2022/07/28 12:09:53;;;;;;;5.38;1.75;;;24.00;52.10;;;;;;5033160;28;20022;-71
2022/07/28 12:12:19;;;;;;;4.47;1.83;;;24.00;52.10;;;;;;5033534;28;20030;-71
2022/07/28 12:14:45;;;;;;;4.93;2.08;;;24.10;52.20;;;;;;5034663;28;20076;-71
2022/07/28 12:17:10;;;;;;;5.28;1.80;;;24.10;52.40;;;;;;5033018;28;20021;-71
2022/07/28 12:19:36;;;;;;;4.80;1.70;;;24.20;52.50;;;;;;5033467;28;20128;-71
2022/07/28 12:22:08;;;;;;;5.95;1.92;;;24.20;52.60;;;;;;5033141;28;20026;-71
2022/07/28 12:24:34;;;;;;;5.60;1.63;;;24.30;52.80;;;;;;5033431;28;20067;-71
2022/07/28 12:27:00;;;;;;;3.83;1.45;;;24.30;52.80;;;;;;5036242;28;20029;-71
2022/07/28 12:29:30;;;;;;;5.40;1.65;;;24.30;53.00;;;;;;5039481;28;20030;-71
2022/07/28 12:32:00;;;;;;;6.65;2.25;;;24.40;53.20;;;;;;5032848;28;20029;-71
2022/07/28 12:34:29;;;;;;;4.38;2.00;;;24.40;53.60;;;;;;5034568;28;20030;-72
2022/07/28 12:36:56;;;;;;;2.40;1.80;;;24.40;53.40;;;;;;5033216;28;20025;-72
2022/07/28 12:39:24;;;;;;;5.22;1.80;;;24.40;53.60;;;;;;5032922;28;20033;-72
2022/07/28 12:42:02;;;;;;;4.68;1.77;;;24.50;53.80;;;;;;5032855;28;20442;-72
2022/07/28 12:44:38;;;;;;;4.63;2.10;;;24.50;53.60;;;;;;5017314;28;20547;-72
2022/07/28 12:47:06;;;;;;;4.15;1.65;;;24.50;53.60;;;;;;5032322;28;20491;-71
2022/07/28 12:49:32;;;;;;;2.67;1.77;;;24.60;53.90;;;;;;5016783;28;20022;-71
2022/07/28 12:51:59;;;;;;;4.65;1.90;;;24.60;54.10;;;;;;5033918;28;20033;-71
2022/07/28 12:54:37;;;;;;;6.90;1.80;;;24.60;54.40;;;;;;5032729;28;20025;-71
2022/07/28 12:57:03;;;;;;;6.43;2.50;;;24.70;54.10;;;;;;5033734;28;20025;-71